createdAt,value
2018-12-20T00:01:41.856Z,102108.16
2018-12-20T00:04:10.970Z,102106.63
2018-12-20T00:06:39.952Z,102109.28
2018-12-20T00:09:09.042Z,102110.68
2018-12-20T00:11:38.090Z,102099.39
2018-12-20T00:14:07.210Z,102093.36
2018-12-20T00:16:36.269Z,102100.36
2018-12-20T00:19:05.445Z,102098.35
2018-12-20T00:21:34.555Z,102090.03
2018-12-20T00:24:03.568Z,102093.89
2018-12-20T00:26:32.691Z,102090.42
2018-12-20T00:29:01.838Z,102099.80
2018-12-20T00:31:30.913Z,102104.68
2018-12-20T00:33:59.995Z,102107.42
2018-12-20T00:36:28.962Z,102111.13
2018-12-20T00:38:58.008Z,102103.39
2018-12-20T00:41:27.072Z,102100.44
2018-12-20T00:43:56.161Z,102098.03
2018-12-20T00:46:26.307Z,102098.81
2018-12-20T00:48:55.381Z,102091.70
2018-12-20T00:51:24.388Z,102087.77
2018-12-20T00:53:53.430Z,102087.98
2018-12-20T00:56:22.504Z,102083.91
2018-12-20T00:58:51.567Z,102082.56
2018-12-20T01:01:20.627Z,102082.11
2018-12-20T01:03:49.830Z,102096.13
2018-12-20T01:06:18.859Z,102098.50
2018-12-20T01:08:47.992Z,102102.97
2018-12-20T01:11:16.944Z,102102.64
2018-12-20T01:13:46.032Z,102097.14
2018-12-20T01:16:15.197Z,102093.58
2018-12-20T01:18:44.220Z,102095.93
2018-12-20T01:21:13.333Z,102089.05
2018-12-20T01:23:42.319Z,102092.91
2018-12-20T01:26:11.367Z,102098.66
2018-12-20T01:28:40.454Z,102091.95
2018-12-20T01:31:09.589Z,102100.72
2018-12-20T01:33:38.629Z,102092.34
2018-12-20T01:36:07.730Z,102092.05
2018-12-20T01:38:36.764Z,102088.95
2018-12-20T01:41:05.824Z,102095.41
2018-12-20T01:43:35.175Z,102102.09
2018-12-20T01:46:04.113Z,102092.48
2018-12-20T01:48:33.208Z,102089.19
2018-12-20T01:51:02.255Z,102087.84
2018-12-20T01:53:31.416Z,102085.78
2018-12-20T01:56:00.481Z,102089.02
2018-12-20T01:58:29.691Z,102081.22
2018-12-20T02:00:58.609Z,102073.97
2018-12-20T02:03:27.732Z,102074.20
2018-12-20T02:05:57.088Z,102076.32
2018-12-20T02:08:26.143Z,102072.50
2018-12-20T02:10:55.326Z,102061.28
2018-12-20T02:13:24.426Z,102058.19
2018-12-20T02:15:53.545Z,102054.91
2018-12-20T02:18:22.523Z,102048.92
2018-12-20T02:20:51.715Z,102048.34
2018-12-20T02:23:20.640Z,102045.42
2018-12-20T02:25:49.985Z,102038.50
2018-12-20T02:28:19.058Z,102038.27
2018-12-20T02:30:48.003Z,102046.75
2018-12-20T02:33:16.987Z,102049.99
2018-12-20T02:35:45.996Z,102045.46
2018-12-20T02:38:15.265Z,102051.56
2018-12-20T02:40:44.209Z,102049.19
2018-12-20T02:43:13.201Z,102051.64
2018-12-20T02:45:42.291Z,102046.64
2018-12-20T02:48:11.377Z,102041.66
2018-12-20T02:50:40.849Z,102040.75
2018-12-20T02:53:09.744Z,102040.23
2018-12-20T02:55:38.579Z,102041.23
2018-12-20T02:58:07.659Z,102034.78
2018-12-20T03:00:36.713Z,102030.76
2018-12-20T03:03:05.785Z,102032.89
2018-12-20T03:05:35.868Z,102033.41
2018-12-20T03:08:04.770Z,102033.91
2018-12-20T03:10:33.943Z,102031.00
2018-12-20T03:13:03.093Z,102032.36
2018-12-20T03:15:32.167Z,102030.51
2018-12-20T03:18:01.051Z,102032.61
2018-12-20T03:20:30.408Z,102028.84
2018-12-20T03:22:59.206Z,102023.72
2018-12-20T03:25:28.352Z,102018.29
2018-12-20T03:27:57.458Z,102021.21
2018-12-20T03:30:26.586Z,102020.55
2018-12-20T03:32:55.553Z,102014.22
2018-12-20T03:35:24.665Z,102014.38
2018-12-20T03:37:53.775Z,102018.48
2018-12-20T03:40:22.682Z,102016.09
2018-12-20T03:42:51.889Z,102016.39
2018-12-20T03:45:28.379Z,102021.20
2018-12-20T03:47:49.896Z,102014.97
2018-12-20T03:50:19.079Z,102010.03
2018-12-20T03:52:48.130Z,102012.87
2018-12-20T03:55:17.316Z,102022.23
2018-12-20T03:57:47.007Z,102022.73
2018-12-20T04:00:15.953Z,102025.22
2018-12-20T04:02:45.074Z,102030.48
2018-12-20T04:05:13.990Z,102022.97
2018-12-20T04:07:43.238Z,102022.23
2018-12-20T04:10:12.053Z,102033.30
2018-12-20T04:12:41.138Z,102034.95
2018-12-20T04:15:10.209Z,102030.19
2018-12-20T04:17:39.296Z,102033.66
2018-12-20T04:20:08.601Z,102031.95
2018-12-20T04:22:37.584Z,102016.52
2018-12-20T04:25:06.621Z,102014.77
2018-12-20T04:27:35.789Z,102019.32
2018-12-20T04:30:04.783Z,102018.62
2018-12-20T04:32:33.987Z,102022.41
2018-12-20T04:35:02.938Z,102008.58
2018-12-20T04:37:32.171Z,102013.11
2018-12-20T04:40:01.064Z,102005.15
2018-12-20T04:42:30.278Z,102009.26
2018-12-20T04:44:59.224Z,102013.28
2018-12-20T04:47:31.061Z,102006.42
2018-12-20T04:50:00.116Z,102012.81
2018-12-20T04:52:29.218Z,102009.12
2018-12-20T04:54:58.420Z,102010.66
2018-12-20T04:57:27.561Z,102009.58
2018-12-20T04:59:56.464Z,102002.84
2018-12-20T05:02:25.777Z,101997.53
2018-12-20T05:04:54.604Z,101999.33
2018-12-20T05:07:23.836Z,102001.38
2018-12-20T05:09:52.713Z,101993.77
2018-12-20T05:12:22.031Z,101996.28
2018-12-20T05:14:50.879Z,101994.77
2018-12-20T05:17:20.098Z,101996.45
2018-12-20T05:19:49.006Z,102000.68
2018-12-20T05:22:18.097Z,101997.05
2018-12-20T05:24:47.152Z,102004.36
2018-12-20T05:27:16.347Z,101998.66
2018-12-20T05:29:45.326Z,101996.56
2018-12-20T05:32:14.653Z,102001.52
2018-12-20T05:34:43.696Z,102001.10
2018-12-20T05:37:12.558Z,101997.58
2018-12-20T05:39:41.634Z,101991.08
2018-12-20T05:42:10.802Z,101988.47
2018-12-20T05:44:39.765Z,101984.08
2018-12-20T05:47:08.937Z,101993.03
2018-12-20T05:49:38.017Z,101990.66
2018-12-20T05:52:06.944Z,101995.89
2018-12-20T05:54:36.010Z,102000.88
2018-12-20T05:57:10.748Z,101998.59
2018-12-20T05:59:39.977Z,101995.38
2018-12-20T06:02:08.864Z,101992.20
2018-12-20T06:04:38.117Z,101989.95
2018-12-20T06:07:07.058Z,101985.52
2018-12-20T06:09:36.078Z,101990.50
2018-12-20T06:12:05.229Z,101988.44
2018-12-20T06:14:34.412Z,101988.70
2018-12-20T06:17:03.428Z,101976.16
2018-12-20T06:19:32.581Z,101985.38
2018-12-20T06:22:01.643Z,101982.41
2018-12-20T06:24:30.531Z,101983.70
2018-12-20T06:26:59.642Z,101979.66
2018-12-20T06:29:28.716Z,101976.42
2018-12-20T06:31:57.774Z,101975.15
2018-12-20T06:34:26.980Z,101978.27
2018-12-20T06:36:56.036Z,101973.80
2018-12-20T06:39:25.096Z,101968.63
2018-12-20T06:41:54.334Z,101970.34
2018-12-20T06:44:23.395Z,101976.51
2018-12-20T06:46:52.464Z,101969.16
2018-12-20T06:49:21.551Z,101967.79
2018-12-20T06:51:50.613Z,101964.18
2018-12-20T06:54:19.669Z,101978.78
2018-12-20T06:56:48.801Z,101976.70
2018-12-20T06:59:17.870Z,101976.66
2018-12-20T07:01:46.911Z,101972.73
2018-12-20T07:04:15.994Z,101972.08
2018-12-20T07:06:45.058Z,101972.61
2018-12-20T07:09:14.112Z,101974.23
2018-12-20T07:11:43.190Z,101979.39
2018-12-20T07:14:12.250Z,101983.22
2018-12-20T07:16:41.334Z,101984.36
2018-12-20T07:19:10.459Z,101994.76
2018-12-20T07:21:39.590Z,101993.44
2018-12-20T07:24:08.623Z,101998.00
2018-12-20T07:26:37.724Z,101997.83
2018-12-20T07:29:06.792Z,101991.61
2018-12-20T07:31:35.848Z,101996.88
2018-12-20T07:34:04.941Z,101994.19
2018-12-20T07:36:34.006Z,101994.59
2018-12-20T07:39:03.090Z,102002.23
2018-12-20T07:41:32.506Z,101996.19
2018-12-20T07:44:01.572Z,101995.24
2018-12-20T07:46:37.537Z,101993.72
2018-12-20T07:48:59.967Z,101995.96
2018-12-20T07:51:29.038Z,102000.23
2018-12-20T07:53:58.107Z,101996.99
2018-12-20T07:56:27.210Z,101991.78
2018-12-20T07:58:56.336Z,101998.51
2018-12-20T08:01:25.387Z,101995.91
2018-12-20T08:03:54.492Z,101993.43
2018-12-20T08:06:44.536Z,101989.63
2018-12-20T08:09:13.623Z,101989.53
2018-12-20T08:11:42.688Z,101983.89
2018-12-20T08:14:11.761Z,101985.58
2018-12-20T08:16:46.023Z,101983.52
2018-12-20T08:19:09.939Z,101985.64
2018-12-20T08:21:39.067Z,101983.80
2018-12-20T08:24:08.181Z,101980.59
2018-12-20T08:26:37.243Z,101982.98
2018-12-20T08:29:06.305Z,101981.61
2018-12-20T08:31:35.391Z,101980.83
2018-12-20T08:34:04.546Z,101981.45
2018-12-20T08:36:33.616Z,101976.44
2018-12-20T08:39:02.714Z,101979.75
2018-12-20T08:41:31.784Z,101984.57
2018-12-20T08:44:00.846Z,101978.93
2018-12-20T08:46:31.674Z,101979.98
2018-12-20T08:48:59.009Z,101976.39
2018-12-20T08:51:28.067Z,101968.50
2018-12-20T08:53:57.155Z,101973.46
2018-12-20T08:56:26.216Z,101973.69
2018-12-20T08:58:55.286Z,101972.78
2018-12-20T09:01:24.380Z,101969.78
2018-12-20T09:03:53.449Z,101976.17
2018-12-20T09:06:22.516Z,101974.89
2018-12-20T09:08:51.605Z,101974.00
2018-12-20T09:11:20.668Z,101971.85
2018-12-20T09:13:49.750Z,101965.13
2018-12-20T09:16:18.854Z,101965.77
2018-12-20T09:18:47.920Z,101962.05
2018-12-20T09:21:16.971Z,101973.14
2018-12-20T09:23:46.323Z,101966.95
2018-12-20T09:26:15.415Z,101963.60
2018-12-20T09:28:44.470Z,101967.61
2018-12-20T09:31:13.644Z,101963.81
2018-12-20T09:33:42.712Z,101965.49
2018-12-20T09:36:11.806Z,101955.57
2018-12-20T09:38:40.922Z,101955.17
2018-12-20T09:41:09.982Z,101962.88
2018-12-20T09:43:39.046Z,101964.72
2018-12-20T09:46:08.168Z,101950.64
2018-12-20T09:48:37.238Z,101946.86
2018-12-20T09:51:06.295Z,101941.55
2018-12-20T09:53:35.383Z,101949.03
2018-12-20T09:56:04.442Z,101946.67
2018-12-20T09:58:33.498Z,101944.86
2018-12-20T10:01:02.589Z,101947.78
2018-12-20T10:03:31.655Z,101949.57
2018-12-20T10:06:00.729Z,101956.05
2018-12-20T10:08:29.841Z,101954.61
2018-12-20T10:10:58.893Z,101951.45
2018-12-20T10:13:27.948Z,101950.28
2018-12-20T10:15:57.030Z,101946.86
2018-12-20T10:18:26.094Z,101939.14
2018-12-20T10:20:55.162Z,101933.83
2018-12-20T10:23:24.239Z,101933.78
2018-12-20T10:25:53.295Z,101935.64
2018-12-20T10:28:22.355Z,101930.80
2018-12-20T10:30:51.471Z,101927.62
2018-12-20T10:33:20.533Z,101929.36
2018-12-20T10:35:49.599Z,101924.52
2018-12-20T10:38:18.703Z,101923.59
2018-12-20T10:40:47.818Z,101927.76
2018-12-20T10:43:16.887Z,101922.19
2018-12-20T10:45:45.978Z,101923.27
2018-12-20T10:48:15.042Z,101922.70
2018-12-20T10:50:44.116Z,101921.53
2018-12-20T10:53:13.494Z,101920.20
2018-12-20T10:55:42.555Z,101926.08
2018-12-20T10:58:11.621Z,101919.25
2018-12-20T11:00:42.549Z,101911.23
2018-12-20T11:03:17.139Z,101907.31
2018-12-20T11:05:51.772Z,101902.82
2018-12-20T11:08:22.694Z,101894.36
2018-12-20T11:10:51.748Z,101893.02
2018-12-20T11:13:25.937Z,101895.09
2018-12-20T11:15:54.924Z,101888.88
2018-12-20T11:18:23.980Z,101874.22
2018-12-20T11:20:53.076Z,101872.43
2018-12-20T11:23:22.142Z,101876.24
2018-12-20T11:25:51.211Z,101873.14
2018-12-20T11:28:20.519Z,101874.21
2018-12-20T11:30:49.584Z,101869.09
2018-12-20T11:33:18.648Z,101874.62
2018-12-20T11:35:47.987Z,101879.98
2018-12-20T11:38:17.080Z,101880.44
2018-12-20T11:40:46.169Z,101876.02
2018-12-20T11:43:15.584Z,101876.28
2018-12-20T11:45:44.654Z,101874.41
2018-12-20T11:48:13.738Z,101874.04
2018-12-20T11:50:42.837Z,101870.25
2018-12-20T11:53:11.899Z,101870.34
2018-12-20T11:55:40.974Z,101868.35
2018-12-20T11:58:10.126Z,101874.59
2018-12-20T12:00:39.291Z,101872.52
2018-12-20T12:03:08.281Z,101868.83
2018-12-20T12:05:37.378Z,101871.05
2018-12-20T12:08:06.460Z,101868.23
2018-12-20T12:10:35.531Z,101867.03
2018-12-20T12:13:04.628Z,101875.97
2018-12-20T12:15:33.706Z,101869.42
2018-12-20T12:18:02.790Z,101874.42
2018-12-20T12:20:31.880Z,101875.62
2018-12-20T12:23:01.027Z,101868.84
2018-12-20T12:25:30.008Z,101875.71
2018-12-20T12:27:59.110Z,101871.72
2018-12-20T12:30:28.195Z,101862.34
2018-12-20T12:32:57.253Z,101863.31
2018-12-20T12:35:26.674Z,101864.05
2018-12-20T12:37:55.750Z,101868.78
2018-12-20T12:40:24.826Z,101869.39
2018-12-20T12:42:53.912Z,101873.39
2018-12-20T12:45:22.980Z,101866.12
2018-12-20T12:50:35.490Z,101857.98
2018-12-20T12:53:04.733Z,101854.25
2018-12-20T12:55:33.795Z,101853.23
2018-12-20T12:58:05.036Z,101849.34
2018-12-20T13:00:31.964Z,101843.63
2018-12-20T13:03:01.029Z,101842.73
2018-12-20T13:05:30.099Z,101840.27
2018-12-20T13:07:59.198Z,101841.16
2018-12-20T13:10:28.260Z,101844.15
2018-12-20T13:12:57.357Z,101844.46
2018-12-20T13:15:26.493Z,101844.81
2018-12-20T13:17:55.566Z,101843.07
2018-12-20T13:20:24.631Z,101841.34
2018-12-20T13:22:53.716Z,101845.78
2018-12-20T13:25:22.783Z,101842.89
2018-12-20T13:27:51.846Z,101842.19
2018-12-20T13:30:20.941Z,101838.69
2018-12-20T13:32:50.001Z,101835.59
2018-12-20T13:35:19.057Z,101844.06
2018-12-20T13:37:48.206Z,101841.45
2018-12-20T13:40:17.272Z,101839.49
2018-12-20T13:42:46.342Z,101842.88
2018-12-20T13:45:15.438Z,101842.88
2018-12-20T13:47:44.500Z,101834.86
2018-12-20T13:50:13.566Z,101839.63
2018-12-20T13:52:42.666Z,101838.48
2018-12-20T13:55:11.752Z,101841.09
2018-12-20T13:57:40.819Z,101833.50
2018-12-20T14:00:09.917Z,101833.25
2018-12-20T14:02:38.985Z,101834.46
2018-12-20T14:05:08.040Z,101841.20
2018-12-20T14:07:37.129Z,101838.38
2018-12-20T14:10:06.190Z,101834.77
2018-12-20T14:12:35.265Z,101830.80
2018-12-20T14:15:04.351Z,101836.59
2018-12-20T14:17:33.423Z,101828.87
2018-12-20T14:20:02.479Z,101831.45
2018-12-20T14:22:31.698Z,101829.52
2018-12-20T14:25:00.786Z,101827.56
2018-12-20T14:27:29.849Z,101827.73
2018-12-20T14:29:58.946Z,101821.86
2018-12-20T14:32:28.007Z,101822.47
2018-12-20T14:34:57.079Z,101827.22
2018-12-20T14:37:26.175Z,101828.92
2018-12-20T14:39:55.230Z,101827.38
2018-12-20T14:42:24.287Z,101829.92
2018-12-20T14:44:53.750Z,101820.14
2018-12-20T14:47:34.163Z,101827.11
2018-12-20T14:50:03.278Z,101822.63
2018-12-20T14:52:32.329Z,101815.30
2018-12-20T14:55:01.400Z,101817.16
2018-12-20T14:57:30.481Z,101815.41
2018-12-20T14:59:59.561Z,101820.23
2018-12-20T15:02:28.626Z,101813.67
2018-12-20T15:04:57.737Z,101816.02
2018-12-20T15:07:26.805Z,101815.56
2018-12-20T15:09:55.871Z,101814.50
2018-12-20T15:12:24.994Z,101812.03
2018-12-20T15:14:54.059Z,101808.52
2018-12-20T15:17:23.127Z,101810.14
2018-12-20T15:19:52.219Z,101808.94
2018-12-20T15:22:21.290Z,101804.05
2018-12-20T15:24:50.364Z,101805.41
2018-12-20T15:27:19.499Z,101805.26
2018-12-20T15:29:48.566Z,101804.77
2018-12-20T15:32:17.634Z,101808.67
2018-12-20T15:34:46.810Z,101801.95
2018-12-20T15:37:15.883Z,101800.09
2018-12-20T15:39:44.950Z,101802.98
2018-12-20T15:42:14.040Z,101799.63
2018-12-20T15:44:43.114Z,101794.14
2018-12-20T15:47:12.177Z,101793.43
2018-12-20T15:49:42.135Z,101799.59
2018-12-20T15:52:10.385Z,101796.28
2018-12-20T15:54:39.450Z,101801.55
2018-12-20T15:57:08.579Z,101793.13
2018-12-20T15:59:37.665Z,101797.72
2018-12-20T16:02:06.730Z,101798.77
2018-12-20T16:04:35.822Z,101789.81
2018-12-20T16:07:04.886Z,101794.63
2018-12-20T16:09:33.958Z,101790.05
2018-12-20T16:12:03.065Z,101788.58
2018-12-20T16:14:32.141Z,101789.11
2018-12-20T16:17:01.207Z,101788.77
2018-12-20T16:19:30.307Z,101787.20
2018-12-20T16:21:59.351Z,101782.37
2018-12-20T16:24:28.423Z,101781.70
2018-12-20T16:26:57.522Z,101777.07
2018-12-20T16:29:26.608Z,101778.95
2018-12-20T16:31:55.680Z,101779.64
2018-12-20T16:34:25.220Z,101770.75
2018-12-20T16:36:54.295Z,101771.11
2018-12-20T16:39:23.558Z,101768.05
2018-12-20T16:41:52.535Z,101764.69
2018-12-20T16:44:21.600Z,101759.75
2018-12-20T16:46:55.538Z,101762.78
2018-12-20T16:49:24.602Z,101759.21
2018-12-20T16:51:53.672Z,101762.18
2018-12-20T16:54:22.802Z,101753.00
2018-12-20T16:56:51.870Z,101758.95
2018-12-20T16:59:20.945Z,101760.27
2018-12-20T17:01:50.092Z,101755.64
2018-12-20T17:04:19.174Z,101752.88
2018-12-20T17:06:51.281Z,101755.48
2018-12-20T17:09:20.355Z,101757.32
2018-12-20T17:11:49.428Z,101754.11
2018-12-20T17:14:18.566Z,101745.91
2018-12-20T17:16:47.630Z,101750.31
2018-12-20T17:19:22.134Z,101744.73
2018-12-20T17:21:45.793Z,101743.17
2018-12-20T17:24:14.868Z,101742.47
2018-12-20T17:26:43.949Z,101736.61
2018-12-20T17:29:13.143Z,101741.97
2018-12-20T17:31:42.212Z,101739.65
2018-12-20T17:34:11.287Z,101741.09
2018-12-20T17:36:40.407Z,101740.09
2018-12-20T17:39:09.492Z,101746.09
2018-12-20T17:41:38.562Z,101736.61
2018-12-20T17:44:07.662Z,101737.89
2018-12-20T17:46:36.734Z,101729.45
2018-12-20T17:49:05.826Z,101727.22
2018-12-20T17:51:34.924Z,101728.99
2018-12-20T17:54:04.002Z,101730.47
2018-12-20T17:56:33.797Z,101727.43
2018-12-20T17:59:02.207Z,101729.77
2018-12-20T18:01:31.286Z,101729.22
2018-12-20T18:04:00.382Z,101733.26
2018-12-20T18:06:30.503Z,101724.92
2018-12-20T18:08:59.573Z,101728.70
2018-12-20T18:11:28.647Z,101718.10
2018-12-20T18:13:57.749Z,101716.45
2018-12-20T18:16:26.823Z,101719.60
2018-12-20T18:18:55.888Z,101716.08
2018-12-20T18:21:25.855Z,101710.19
2018-12-20T18:23:54.914Z,101705.84
2018-12-20T18:26:23.989Z,101711.31
2018-12-20T18:28:53.082Z,101710.18
2018-12-20T18:31:22.149Z,101711.14
2018-12-20T18:33:51.222Z,101717.38
2018-12-20T18:36:20.317Z,101711.56
2018-12-20T18:38:49.399Z,101712.30
2018-12-20T18:41:18.473Z,101709.59
2018-12-20T18:43:47.574Z,101707.30
2018-12-20T18:46:17.645Z,101707.59
2018-12-20T18:48:46.735Z,101713.62
2018-12-20T18:51:15.831Z,101706.31
2018-12-20T18:53:44.887Z,101708.64
2018-12-20T18:56:13.959Z,101710.41
2018-12-20T18:58:43.064Z,101703.64
2018-12-20T19:01:12.129Z,101706.06
2018-12-20T19:03:41.252Z,101701.85
2018-12-20T19:06:13.981Z,101704.02
2018-12-20T19:08:43.042Z,101702.80
2018-12-20T19:11:12.116Z,101700.31
2018-12-20T19:13:41.210Z,101706.50
2018-12-20T19:16:10.284Z,101703.52
2018-12-20T19:18:39.358Z,101701.75
2018-12-20T19:21:08.453Z,101697.53
2018-12-20T19:23:37.530Z,101696.38
2018-12-20T19:26:06.616Z,101702.00
2018-12-20T19:28:35.810Z,101707.09
2018-12-20T19:31:04.884Z,101698.86
2018-12-20T19:33:33.952Z,101698.11
2018-12-20T19:36:03.052Z,101695.75
2018-12-20T19:38:32.133Z,101697.72
2018-12-20T19:41:01.224Z,101693.58
2018-12-20T19:43:30.332Z,101697.81
2018-12-20T19:45:59.398Z,101689.34
2018-12-20T19:48:28.477Z,101689.66
2018-12-20T19:50:57.580Z,101694.20
2018-12-20T19:53:26.648Z,101687.95
2018-12-20T19:55:55.726Z,101691.50
2018-12-20T19:58:24.825Z,101691.80
2018-12-20T20:00:53.901Z,101688.26
2018-12-20T20:03:22.979Z,101694.16
2018-12-20T20:05:52.105Z,101690.86
2018-12-20T20:08:21.189Z,101690.80
2018-12-20T20:10:50.256Z,101692.59
2018-12-20T20:13:19.632Z,101690.17
2018-12-20T20:15:48.453Z,101688.36
2018-12-20T20:18:17.518Z,101687.17
2018-12-20T20:20:46.629Z,101692.12
2018-12-20T20:23:15.694Z,101686.12
2018-12-20T20:25:44.787Z,101683.80
2018-12-20T20:28:13.906Z,101684.32
2018-12-20T20:30:43.050Z,101677.06
2018-12-20T20:33:12.145Z,101683.31
2018-12-20T20:35:41.274Z,101677.48
2018-12-20T20:38:10.357Z,101672.44
2018-12-20T20:40:39.434Z,101673.08
2018-12-20T20:43:08.549Z,101675.95
2018-12-20T20:45:37.681Z,101678.41
2018-12-20T20:48:06.783Z,101675.04
2018-12-20T20:50:36.243Z,101672.84
2018-12-20T20:53:05.320Z,101677.09
2018-12-20T20:55:34.388Z,101670.70
2018-12-20T20:58:03.496Z,101673.07
2018-12-20T21:00:32.569Z,101671.77
2018-12-20T21:03:01.638Z,101664.03
2018-12-20T21:05:30.746Z,101659.77
2018-12-20T21:07:59.834Z,101661.64
2018-12-20T21:10:28.906Z,101658.75
2018-12-20T21:12:58.105Z,101655.81
2018-12-20T21:15:27.299Z,101649.27
2018-12-20T21:17:56.363Z,101647.51
2018-12-20T21:20:30.715Z,101642.03
2018-12-20T21:22:54.562Z,101645.69
2018-12-20T21:25:23.643Z,101646.72
2018-12-20T21:27:52.741Z,101642.12
2018-12-20T21:30:21.815Z,101638.78
2018-12-20T21:32:50.898Z,101641.44
2018-12-20T21:35:20.032Z,101637.11
2018-12-20T21:37:49.100Z,101631.70
2018-12-20T21:40:18.701Z,101632.06
2018-12-20T21:42:47.280Z,101626.95
2018-12-20T21:45:16.366Z,101628.95
2018-12-20T21:47:45.444Z,101622.55
2018-12-20T21:50:14.639Z,101625.12
2018-12-20T21:52:43.780Z,101622.05
2018-12-20T21:55:12.863Z,101621.58
2018-12-20T21:57:42.051Z,101622.10
2018-12-20T22:00:21.151Z,101630.39
2018-12-20T22:02:52.769Z,101627.93
2018-12-20T22:05:21.831Z,101625.70
2018-12-20T22:07:50.904Z,101627.16
2018-12-20T22:10:20.011Z,101623.80
2018-12-20T22:12:49.086Z,101625.36
2018-12-20T22:15:18.164Z,101628.89
2018-12-20T22:17:47.647Z,101623.16
2018-12-20T22:20:16.731Z,101625.12
2018-12-20T22:22:45.796Z,101623.31
2018-12-20T22:25:14.935Z,101625.84
2018-12-20T22:27:44.010Z,101619.41
2018-12-20T22:30:13.092Z,101620.59
2018-12-20T22:32:42.182Z,101621.37
2018-12-20T22:35:11.250Z,101622.77
2018-12-20T22:37:40.320Z,101614.47
2018-12-20T22:40:09.688Z,101609.02
2018-12-20T22:42:38.761Z,101614.91
2018-12-20T22:45:07.867Z,101606.91
2018-12-20T22:47:37.053Z,101607.27
2018-12-20T22:50:06.171Z,101610.02
2018-12-20T22:52:35.243Z,101598.19
2018-12-20T22:55:04.339Z,101598.72
2018-12-20T22:57:33.410Z,101595.17
2018-12-20T23:00:02.492Z,101594.58
2018-12-20T23:02:31.602Z,101595.45
2018-12-20T23:05:00.672Z,101590.57
2018-12-20T23:07:29.744Z,101590.98
2018-12-20T23:09:58.833Z,101590.98
2018-12-20T23:12:27.928Z,101587.70
2018-12-20T23:14:56.999Z,101586.73
2018-12-20T23:20:21.114Z,101588.06
2018-12-20T23:22:50.416Z,101583.59
2018-12-20T23:25:19.492Z,101585.02
2018-12-20T23:27:48.567Z,101582.48
2018-12-20T23:30:17.663Z,101582.47
2018-12-20T23:32:46.729Z,101579.25
2018-12-20T23:35:15.795Z,101577.08
2018-12-20T23:37:44.921Z,101576.25
2018-12-20T23:40:14.013Z,101574.36
2018-12-20T23:42:43.082Z,101580.24
2018-12-20T23:45:12.173Z,101580.11
2018-12-20T23:47:41.241Z,101573.47
2018-12-20T23:50:10.319Z,101568.38
2018-12-20T23:52:39.414Z,101567.08
2018-12-20T23:55:08.478Z,101559.73
2018-12-20T23:57:37.557Z,101558.14
